sensor_id;sensor_type;location;lat;lon;timestamp;P1;durP1;ratioP1;P2;durP2;ratioP2
53389;SDS011;39288;42.970;1.524;2022-12-07T00:00:15;9.20;;;6.00;;
53389;SDS011;39288;42.970;1.524;2022-12-07T00:01:18;8.40;;;5.83;;
53389;SDS011;39288;42.970;1.524;2022-12-07T00:02:19;7.60;;;4.88;;
53389;SDS011;39288;42.970;1.524;2022-12-07T00:03:20;8.13;;;5.10;;
53389;SDS011;39288;42.970;1.524;2022-12-07T00:04:20;7.33;;;4.13;;
53389;SDS011;39288;42.970;1.524;2022-12-07T00:05:21;6.63;;;4.00;;
53389;SDS011;39288;42.970;1.524;2022-12-07T00:06:21;6.67;;;3.90;;
53389;SDS011;39288;42.970;1.524;2022-12-07T00:07:22;6.40;;;4.10;;
53389;SDS011;39288;42.970;1.524;2022-12-07T00:08:22;8.77;;;4.50;;
53389;SDS011;39288;42.970;1.524;2022-12-07T00:09:23;7.63;;;4.33;;
53389;SDS011;39288;42.970;1.524;2022-12-07T00:10:23;7.17;;;4.20;;
53389;SDS011;39288;42.970;1.524;2022-12-07T00:11:24;6.23;;;4.33;;
53389;SDS011;39288;42.970;1.524;2022-12-07T00:12:25;5.65;;;4.35;;
53389;SDS011;39288;42.970;1.524;2022-12-07T00:13:25;6.70;;;4.73;;
53389;SDS011;39288;42.970;1.524;2022-12-07T00:14:26;12.10;;;6.60;;
53389;SDS011;39288;42.970;1.524;2022-12-07T00:15:26;9.77;;;7.07;;
53389;SDS011;39288;42.970;1.524;2022-12-07T00:16:28;12.80;;;8.33;;
53389;SDS011;39288;42.970;1.524;2022-12-07T00:17:30;13.45;;;9.70;;
53389;SDS011;39288;42.970;1.524;2022-12-07T00:18:30;14.10;;;8.50;;
53389;SDS011;39288;42.970;1.524;2022-12-07T00:19:31;9.27;;;7.47;;
53389;SDS011;39288;42.970;1.524;2022-12-07T00:20:31;18.67;;;12.27;;
53389;SDS011;39288;42.970;1.524;2022-12-07T00:21:33;21.20;;;13.20;;
53389;SDS011;39288;42.970;1.524;2022-12-07T00:23:35;19.40;;;13.00;;
53389;SDS011;39288;42.970;1.524;2022-12-07T00:24:35;16.50;;;9.90;;
53389;SDS011;39288;42.970;1.524;2022-12-07T00:25:36;13.55;;;9.02;;
53389;SDS011;39288;42.970;1.524;2022-12-07T00:26:37;12.87;;;7.87;;
53389;SDS011;39288;42.970;1.524;2022-12-07T00:27:38;15.00;;;8.73;;
53389;SDS011;39288;42.970;1.524;2022-12-07T00:28:39;8.03;;;4.90;;
53389;SDS011;39288;42.970;1.524;2022-12-07T00:29:39;7.07;;;5.23;;
53389;SDS011;39288;42.970;1.524;2022-12-07T00:30:40;14.87;;;5.30;;
53389;SDS011;39288;42.970;1.524;2022-12-07T00:31:40;7.82;;;5.15;;
53389;SDS011;39288;42.970;1.524;2022-12-07T00:32:41;6.07;;;4.33;;
53389;SDS011;39288;42.970;1.524;2022-12-07T00:33:41;7.30;;;4.77;;
53389;SDS011;39288;42.970;1.524;2022-12-07T00:34:42;8.40;;;4.87;;
53389;SDS011;39288;42.970;1.524;2022-12-07T00:35:42;5.10;;;3.80;;
53389;SDS011;39288;42.970;1.524;2022-12-07T00:36:43;5.73;;;3.80;;
53389;SDS011;39288;42.970;1.524;2022-12-07T00:37:43;4.53;;;3.30;;
53389;SDS011;39288;42.970;1.524;2022-12-07T00:38:44;5.97;;;4.20;;
53389;SDS011;39288;42.970;1.524;2022-12-07T00:39:45;7.43;;;3.83;;
53389;SDS011;39288;42.970;1.524;2022-12-07T00:40:53;6.53;;;4.03;;
53389;SDS011;39288;42.970;1.524;2022-12-07T00:41:56;5.57;;;3.50;;
53389;SDS011;39288;42.970;1.524;2022-12-07T00:42:56;5.30;;;3.53;;
53389;SDS011;39288;42.970;1.524;2022-12-07T00:43:57;4.10;;;2.93;;
53389;SDS011;39288;42.970;1.524;2022-12-07T00:44:58;3.90;;;2.63;;
53389;SDS011;39288;42.970;1.524;2022-12-07T00:45:58;5.55;;;3.10;;
53389;SDS011;39288;42.970;1.524;2022-12-07T00:46:59;6.43;;;3.20;;
53389;SDS011;39288;42.970;1.524;2022-12-07T00:47:59;3.60;;;2.50;;
53389;SDS011;39288;42.970;1.524;2022-12-07T00:49:00;4.00;;;3.10;;
53389;SDS011;39288;42.970;1.524;2022-12-07T00:50:00;3.50;;;2.27;;
53389;SDS011;39288;42.970;1.524;2022-12-07T00:51:01;4.23;;;2.90;;
53389;SDS011;39288;42.970;1.524;2022-12-07T00:52:02;4.03;;;2.90;;
53389;SDS011;39288;42.970;1.524;2022-12-07T00:53:02;4.93;;;3.10;;
53389;SDS011;39288;42.970;1.524;2022-12-07T00:54:03;6.77;;;3.83;;
53389;SDS011;39288;42.970;1.524;2022-12-07T00:55:03;5.07;;;3.00;;
53389;SDS011;39288;42.970;1.524;2022-12-07T00:57:18;4.85;;;3.55;;
53389;SDS011;39288;42.970;1.524;2022-12-07T00:58:19;5.10;;;4.03;;
53389;SDS011;39288;42.970;1.524;2022-12-07T00:59:19;11.67;;;7.27;;
53389;SDS011;39288;42.970;1.524;2022-12-07T01:00:20;18.02;;;10.02;;
53389;SDS011;39288;42.970;1.524;2022-12-07T01:01:20;17.60;;;10.50;;
53389;SDS011;39288;42.970;1.524;2022-12-07T01:02:21;12.23;;;7.67;;
53389;SDS011;39288;42.970;1.524;2022-12-07T01:03:22;12.25;;;7.15;;
53389;SDS011;39288;42.970;1.524;2022-12-07T01:04:22;8.83;;;5.63;;
53389;SDS011;39288;42.970;1.524;2022-12-07T01:05:23;7.80;;;5.13;;
53389;SDS011;39288;42.970;1.524;2022-12-07T01:06:23;5.67;;;3.90;;
53389;SDS011;39288;42.970;1.524;2022-12-07T01:07:25;10.05;;;6.72;;
53389;SDS011;39288;42.970;1.524;2022-12-07T01:08:26;14.33;;;8.90;;
53389;SDS011;39288;42.970;1.524;2022-12-07T01:09:27;10.38;;;6.60;;
53389;SDS011;39288;42.970;1.524;2022-12-07T01:10:28;11.50;;;8.00;;
53389;SDS011;39288;42.970;1.524;2022-12-07T01:11:30;14.02;;;8.18;;
53389;SDS011;39288;42.970;1.524;2022-12-07T01:12:31;10.90;;;7.50;;
53389;SDS011;39288;42.970;1.524;2022-12-07T01:13:32;13.03;;;8.50;;
53389;SDS011;39288;42.970;1.524;2022-12-07T01:14:33;10.57;;;6.97;;
53389;SDS011;39288;42.970;1.524;2022-12-07T01:15:34;11.47;;;6.57;;
53389;SDS011;39288;42.970;1.524;2022-12-07T01:16:34;11.47;;;6.80;;
53389;SDS011;39288;42.970;1.524;2022-12-07T01:17:35;9.57;;;6.27;;
53389;SDS011;39288;42.970;1.524;2022-12-07T01:18:35;10.07;;;6.93;;
53389;SDS011;39288;42.970;1.524;2022-12-07T01:19:36;10.87;;;6.23;;
53389;SDS011;39288;42.970;1.524;2022-12-07T01:20:37;9.90;;;7.07;;
53389;SDS011;39288;42.970;1.524;2022-12-07T01:21:37;10.80;;;7.23;;
53389;SDS011;39288;42.970;1.524;2022-12-07T01:22:39;11.38;;;7.55;;
53389;SDS011;39288;42.970;1.524;2022-12-07T01:23:40;10.85;;;8.18;;
53389;SDS011;39288;42.970;1.524;2022-12-07T01:24:41;15.23;;;9.33;;
53389;SDS011;39288;42.970;1.524;2022-12-07T01:25:41;13.57;;;8.73;;
53389;SDS011;39288;42.970;1.524;2022-12-07T01:26:41;11.33;;;7.07;;
53389;SDS011;39288;42.970;1.524;2022-12-07T01:27:42;7.73;;;5.70;;
53389;SDS011;39288;42.970;1.524;2022-12-07T01:28:43;8.00;;;5.97;;
53389;SDS011;39288;42.970;1.524;2022-12-07T01:29:43;9.40;;;4.83;;
53389;SDS011;39288;42.970;1.524;2022-12-07T01:30:44;9.77;;;5.73;;
53389;SDS011;39288;42.970;1.524;2022-12-07T01:31:44;8.77;;;5.95;;
53389;SDS011;39288;42.970;1.524;2022-12-07T01:32:45;7.80;;;5.93;;
53389;SDS011;39288;42.970;1.524;2022-12-07T01:33:47;7.73;;;6.00;;
53389;SDS011;39288;42.970;1.524;2022-12-07T01:34:48;7.97;;;5.50;;
53389;SDS011;39288;42.970;1.524;2022-12-07T01:35:49;6.73;;;5.20;;
53389;SDS011;39288;42.970;1.524;2022-12-07T01:36:49;6.93;;;4.93;;
53389;SDS011;39288;42.970;1.524;2022-12-07T01:37:50;6.70;;;4.60;;
53389;SDS011;39288;42.970;1.524;2022-12-07T01:38:51;6.43;;;4.20;;
53389;SDS011;39288;42.970;1.524;2022-12-07T01:39:56;6.43;;;4.15;;
53389;SDS011;39288;42.970;1.524;2022-12-07T01:40:57;9.83;;;3.63;;
53389;SDS011;39288;42.970;1.524;2022-12-07T01:41:57;6.50;;;4.20;;
53389;SDS011;39288;42.970;1.524;2022-12-07T01:42:58;5.97;;;4.10;;
53389;SDS011;39288;42.970;1.524;2022-12-07T01:45:31;7.03;;;3.97;;
53389;SDS011;39288;42.970;1.524;2022-12-07T01:46:37;6.45;;;4.03;;
53389;SDS011;39288;42.970;1.524;2022-12-07T01:47:38;7.65;;;3.47;;
53389;SDS011;39288;42.970;1.524;2022-12-07T01:48:39;7.50;;;4.33;;
53389;SDS011;39288;42.970;1.524;2022-12-07T01:49:42;8.88;;;3.50;;
53389;SDS011;39288;42.970;1.524;2022-12-07T01:50:44;5.35;;;3.50;;
53389;SDS011;39288;42.970;1.524;2022-12-07T01:51:47;4.97;;;3.22;;
53389;SDS011;39288;42.970;1.524;2022-12-07T01:53:49;4.63;;;3.05;;
53389;SDS011;39288;42.970;1.524;2022-12-07T01:54:51;4.70;;;3.27;;
53389;SDS011;39288;42.970;1.524;2022-12-07T01:55:54;6.57;;;3.38;;
53389;SDS011;39288;42.970;1.524;2022-12-07T01:56:56;5.22;;;3.75;;
53389;SDS011;39288;42.970;1.524;2022-12-07T01:57:57;6.63;;;4.13;;
53389;SDS011;39288;42.970;1.524;2022-12-07T01:58:57;4.47;;;3.30;;
53389;SDS011;39288;42.970;1.524;2022-12-07T02:00:00;5.68;;;3.60;;
53389;SDS011;39288;42.970;1.524;2022-12-07T02:01:00;3.80;;;3.10;;
53389;SDS011;39288;42.970;1.524;2022-12-07T02:02:01;7.37;;;3.53;;
53389;SDS011;39288;42.970;1.524;2022-12-07T02:04:09;7.75;;;3.42;;
53389;SDS011;39288;42.970;1.524;2022-12-07T02:05:10;9.43;;;4.82;;
53389;SDS011;39288;42.970;1.524;2022-12-07T02:06:12;7.60;;;5.13;;
53389;SDS011;39288;42.970;1.524;2022-12-07T02:07:16;6.05;;;4.07;;
53389;SDS011;39288;42.970;1.524;2022-12-07T02:08:16;8.83;;;5.43;;
53389;SDS011;39288;42.970;1.524;2022-12-07T02:09:17;6.28;;;4.35;;
53389;SDS011;39288;42.970;1.524;2022-12-07T02:10:19;6.93;;;5.03;;
53389;SDS011;39288;42.970;1.524;2022-12-07T02:11:21;9.63;;;5.90;;
53389;SDS011;39288;42.970;1.524;2022-12-07T02:12:22;7.97;;;5.37;;
53389;SDS011;39288;42.970;1.524;2022-12-07T02:13:26;7.33;;;5.93;;
53389;SDS011;39288;42.970;1.524;2022-12-07T02:14:30;8.05;;;6.00;;
53389;SDS011;39288;42.970;1.524;2022-12-07T02:15:55;6.93;;;5.20;;
53389;SDS011;39288;42.970;1.524;2022-12-07T02:30:04;7.22;;;5.57;;
53389;SDS011;39288;42.970;1.524;2022-12-07T02:31:11;9.05;;;5.75;;
53389;SDS011;39288;42.970;1.524;2022-12-07T02:33:31;11.00;;;7.32;;
53389;SDS011;39288;42.970;1.524;2022-12-07T02:36:50;13.88;;;8.98;;
53389;SDS011;39288;42.970;1.524;2022-12-07T02:39:17;11.00;;;8.52;;
53389;SDS011;39288;42.970;1.524;2022-12-07T02:42:01;9.10;;;6.53;;
53389;SDS011;39288;42.970;1.524;2022-12-07T02:44:10;10.48;;;6.88;;
53389;SDS011;39288;42.970;1.524;2022-12-07T02:45:14;9.77;;;7.30;;
53389;SDS011;39288;42.970;1.524;2022-12-07T02:46:17;8.98;;;6.75;;
53389;SDS011;39288;42.970;1.524;2022-12-07T02:47:21;10.02;;;6.30;;
53389;SDS011;39288;42.970;1.524;2022-12-07T02:48:23;7.93;;;6.65;;
53389;SDS011;39288;42.970;1.524;2022-12-07T02:49:25;9.60;;;5.82;;
53389;SDS011;39288;42.970;1.524;2022-12-07T02:50:27;21.27;;;11.30;;
53389;SDS011;39288;42.970;1.524;2022-12-07T02:51:31;13.10;;;9.20;;
53389;SDS011;39288;42.970;1.524;2022-12-07T02:52:32;12.60;;;8.52;;
53389;SDS011;39288;42.970;1.524;2022-12-07T02:53:40;10.17;;;7.13;;
53389;SDS011;39288;42.970;1.524;2022-12-07T02:54:42;9.60;;;7.03;;
53389;SDS011;39288;42.970;1.524;2022-12-07T02:55:42;10.80;;;7.30;;
53389;SDS011;39288;42.970;1.524;2022-12-07T03:00:08;35.80;;;17.08;;
53389;SDS011;39288;42.970;1.524;2022-12-07T03:03:04;29.52;;;16.00;;
53389;SDS011;39288;42.970;1.524;2022-12-07T03:04:19;12.80;;;9.88;;
53389;SDS011;39288;42.970;1.524;2022-12-07T03:05:51;13.75;;;10.00;;
53389;SDS011;39288;42.970;1.524;2022-12-07T03:08:39;14.93;;;10.18;;
53389;SDS011;39288;42.970;1.524;2022-12-07T03:09:52;13.48;;;9.63;;
53389;SDS011;39288;42.970;1.524;2022-12-07T03:11:13;11.75;;;8.73;;
53389;SDS011;39288;42.970;1.524;2022-12-07T03:12:18;14.75;;;9.35;;
53389;SDS011;39288;42.970;1.524;2022-12-07T03:14:31;13.98;;;10.25;;
53389;SDS011;39288;42.970;1.524;2022-12-07T03:15:39;10.43;;;8.63;;
53389;SDS011;39288;42.970;1.524;2022-12-07T03:16:52;14.02;;;9.45;;
53389;SDS011;39288;42.970;1.524;2022-12-07T03:17:55;11.07;;;8.73;;
53389;SDS011;39288;42.970;1.524;2022-12-07T03:20:00;10.57;;;8.48;;
53389;SDS011;39288;42.970;1.524;2022-12-07T03:21:05;13.75;;;8.93;;
53389;SDS011;39288;42.970;1.524;2022-12-07T03:22:12;11.88;;;9.27;;
53389;SDS011;39288;42.970;1.524;2022-12-07T03:23:14;11.13;;;9.25;;
53389;SDS011;39288;42.970;1.524;2022-12-07T03:24:16;11.55;;;8.63;;
53389;SDS011;39288;42.970;1.524;2022-12-07T03:25:20;10.27;;;8.00;;
53389;SDS011;39288;42.970;1.524;2022-12-07T03:26:29;11.00;;;9.10;;
53389;SDS011;39288;42.970;1.524;2022-12-07T03:27:33;10.70;;;8.52;;
53389;SDS011;39288;42.970;1.524;2022-12-07T03:28:36;15.27;;;8.10;;
53389;SDS011;39288;42.970;1.524;2022-12-07T03:29:43;12.82;;;9.77;;
53389;SDS011;39288;42.970;1.524;2022-12-07T03:30:48;14.02;;;9.90;;
53389;SDS011;39288;42.970;1.524;2022-12-07T03:31:53;13.27;;;8.65;;
53389;SDS011;39288;42.970;1.524;2022-12-07T03:33:01;15.68;;;11.25;;
53389;SDS011;39288;42.970;1.524;2022-12-07T03:34:11;15.55;;;10.40;;
53389;SDS011;39288;42.970;1.524;2022-12-07T03:35:27;13.98;;;9.48;;
53389;SDS011;39288;42.970;1.524;2022-12-07T03:36:32;14.30;;;9.85;;
53389;SDS011;39288;42.970;1.524;2022-12-07T03:37:43;12.52;;;9.68;;
53389;SDS011;39288;42.970;1.524;2022-12-07T03:38:57;13.27;;;9.13;;
53389;SDS011;39288;42.970;1.524;2022-12-07T03:40:07;9.63;;;8.48;;
53389;SDS011;39288;42.970;1.524;2022-12-07T03:41:30;16.08;;;9.23;;
53389;SDS011;39288;42.970;1.524;2022-12-07T03:42:31;10.68;;;8.85;;
53389;SDS011;39288;42.970;1.524;2022-12-07T03:43:33;10.70;;;9.02;;
53389;SDS011;39288;42.970;1.524;2022-12-07T03:44:34;11.90;;;9.33;;
53389;SDS011;39288;42.970;1.524;2022-12-07T03:45:39;12.40;;;9.45;;
53389;SDS011;39288;42.970;1.524;2022-12-07T03:46:46;12.23;;;9.05;;
53389;SDS011;39288;42.970;1.524;2022-12-07T03:48:15;13.45;;;9.30;;
53389;SDS011;39288;42.970;1.524;2022-12-07T03:49:43;11.20;;;8.35;;
53389;SDS011;39288;42.970;1.524;2022-12-07T03:50:56;11.98;;;8.80;;
53389;SDS011;39288;42.970;1.524;2022-12-07T03:53:26;12.77;;;8.77;;
53389;SDS011;39288;42.970;1.524;2022-12-07T03:54:41;10.52;;;7.70;;
53389;SDS011;39288;42.970;1.524;2022-12-07T03:55:45;13.38;;;8.88;;
53389;SDS011;39288;42.970;1.524;2022-12-07T03:56:47;8.65;;;6.65;;
53389;SDS011;39288;42.970;1.524;2022-12-07T03:57:49;8.60;;;6.70;;
53389;SDS011;39288;42.970;1.524;2022-12-07T03:58:53;10.68;;;6.57;;
53389;SDS011;39288;42.970;1.524;2022-12-07T03:59:54;11.32;;;7.30;;
53389;SDS011;39288;42.970;1.524;2022-12-07T04:01:57;11.80;;;7.55;;
53389;SDS011;39288;42.970;1.524;2022-12-07T04:03:01;10.82;;;7.88;;
53389;SDS011;39288;42.970;1.524;2022-12-07T04:04:02;12.53;;;8.80;;
53389;SDS011;39288;42.970;1.524;2022-12-07T04:05:02;12.07;;;8.40;;
53389;SDS011;39288;42.970;1.524;2022-12-07T04:06:04;16.90;;;7.87;;
53389;SDS011;39288;42.970;1.524;2022-12-07T04:07:04;11.18;;;8.02;;
53389;SDS011;39288;42.970;1.524;2022-12-07T04:08:05;12.00;;;9.10;;
53389;SDS011;39288;42.970;1.524;2022-12-07T04:09:05;10.83;;;7.97;;
53389;SDS011;39288;42.970;1.524;2022-12-07T04:10:06;9.15;;;7.47;;
53389;SDS011;39288;42.970;1.524;2022-12-07T04:11:07;9.57;;;8.30;;
53389;SDS011;39288;42.970;1.524;2022-12-07T04:12:08;8.33;;;7.23;;
53389;SDS011;39288;42.970;1.524;2022-12-07T04:13:08;8.00;;;6.67;;
53389;SDS011;39288;42.970;1.524;2022-12-07T04:14:09;8.70;;;6.10;;
53389;SDS011;39288;42.970;1.524;2022-12-07T04:15:18;10.18;;;7.07;;
53389;SDS011;39288;42.970;1.524;2022-12-07T04:16:22;12.23;;;8.32;;
53389;SDS011;39288;42.970;1.524;2022-12-07T04:17:22;8.07;;;7.00;;
53389;SDS011;39288;42.970;1.524;2022-12-07T04:18:23;9.10;;;7.30;;
53389;SDS011;39288;42.970;1.524;2022-12-07T04:19:24;12.07;;;8.03;;
53389;SDS011;39288;42.970;1.524;2022-12-07T04:20:27;10.32;;;7.53;;
53389;SDS011;39288;42.970;1.524;2022-12-07T04:21:27;12.37;;;8.43;;
53389;SDS011;39288;42.970;1.524;2022-12-07T04:22:27;12.97;;;8.97;;
53389;SDS011;39288;42.970;1.524;2022-12-07T04:23:28;10.53;;;8.30;;
53389;SDS011;39288;42.970;1.524;2022-12-07T04:24:28;11.17;;;8.07;;
53389;SDS011;39288;42.970;1.524;2022-12-07T04:25:29;13.77;;;8.10;;
53389;SDS011;39288;42.970;1.524;2022-12-07T04:26:29;10.53;;;8.57;;
53389;SDS011;39288;42.970;1.524;2022-12-07T04:27:30;8.50;;;7.60;;
53389;SDS011;39288;42.970;1.524;2022-12-07T04:28:30;8.60;;;7.70;;
53389;SDS011;39288;42.970;1.524;2022-12-07T04:29:31;14.40;;;9.73;;
53389;SDS011;39288;42.970;1.524;2022-12-07T04:30:31;25.37;;;13.83;;
53389;SDS011;39288;42.970;1.524;2022-12-07T04:31:32;10.00;;;8.33;;
53389;SDS011;39288;42.970;1.524;2022-12-07T04:32:32;9.67;;;8.20;;
53389;SDS011;39288;42.970;1.524;2022-12-07T04:33:33;15.57;;;10.67;;
53389;SDS011;39288;42.970;1.524;2022-12-07T04:34:33;13.07;;;9.27;;
53389;SDS011;39288;42.970;1.524;2022-12-07T04:35:34;33.30;;;29.90;;
53389;SDS011;39288;42.970;1.524;2022-12-07T04:36:34;28.13;;;25.10;;
53389;SDS011;39288;42.970;1.524;2022-12-07T04:37:36;25.20;;;21.77;;
53389;SDS011;39288;42.970;1.524;2022-12-07T04:38:38;19.85;;;16.38;;
53389;SDS011;39288;42.970;1.524;2022-12-07T04:39:39;20.37;;;16.53;;
53389;SDS011;39288;42.970;1.524;2022-12-07T04:40:40;22.73;;;20.33;;
53389;SDS011;39288;42.970;1.524;2022-12-07T04:41:40;14.37;;;11.77;;
53389;SDS011;39288;42.970;1.524;2022-12-07T04:42:41;23.33;;;16.93;;
53389;SDS011;39288;42.970;1.524;2022-12-07T04:43:41;24.13;;;16.20;;
53389;SDS011;39288;42.970;1.524;2022-12-07T04:44:42;22.27;;;14.93;;
53389;SDS011;39288;42.970;1.524;2022-12-07T04:45:46;16.63;;;11.93;;
53389;SDS011;39288;42.970;1.524;2022-12-07T04:46:47;25.60;;;12.88;;
53389;SDS011;39288;42.970;1.524;2022-12-07T04:47:48;16.17;;;13.20;;
53389;SDS011;39288;42.970;1.524;2022-12-07T04:48:48;18.17;;;13.50;;
53389;SDS011;39288;42.970;1.524;2022-12-07T04:49:49;17.57;;;13.30;;
53389;SDS011;39288;42.970;1.524;2022-12-07T04:50:49;16.37;;;11.70;;
53389;SDS011;39288;42.970;1.524;2022-12-07T04:51:50;14.40;;;11.60;;
53389;SDS011;39288;42.970;1.524;2022-12-07T04:52:51;17.23;;;12.37;;
53389;SDS011;39288;42.970;1.524;2022-12-07T04:53:51;14.97;;;11.63;;
53389;SDS011;39288;42.970;1.524;2022-12-07T04:54:52;15.32;;;12.32;;
53389;SDS011;39288;42.970;1.524;2022-12-07T04:55:52;12.90;;;11.20;;
53389;SDS011;39288;42.970;1.524;2022-12-07T04:56:53;18.80;;;13.50;;
53389;SDS011;39288;42.970;1.524;2022-12-07T04:57:53;16.67;;;13.00;;
53389;SDS011;39288;42.970;1.524;2022-12-07T04:58:54;14.57;;;11.90;;
53389;SDS011;39288;42.970;1.524;2022-12-07T04:59:55;15.73;;;12.07;;
53389;SDS011;39288;42.970;1.524;2022-12-07T05:00:55;17.90;;;13.57;;
53389;SDS011;39288;42.970;1.524;2022-12-07T05:01:56;14.90;;;11.13;;
53389;SDS011;39288;42.970;1.524;2022-12-07T05:02:56;23.00;;;14.23;;
53389;SDS011;39288;42.970;1.524;2022-12-07T05:03:57;19.55;;;13.82;;
53389;SDS011;39288;42.970;1.524;2022-12-07T05:04:57;19.43;;;12.77;;
53389;SDS011;39288;42.970;1.524;2022-12-07T05:05:58;14.97;;;11.57;;
53389;SDS011;39288;42.970;1.524;2022-12-07T05:06:58;16.20;;;13.03;;
53389;SDS011;39288;42.970;1.524;2022-12-07T05:07:58;13.07;;;11.30;;
53389;SDS011;39288;42.970;1.524;2022-12-07T05:08:59;12.00;;;10.63;;
53389;SDS011;39288;42.970;1.524;2022-12-07T05:10:00;12.23;;;10.50;;
53389;SDS011;39288;42.970;1.524;2022-12-07T05:11:01;14.80;;;11.50;;
53389;SDS011;39288;42.970;1.524;2022-12-07T05:12:02;14.40;;;11.48;;
53389;SDS011;39288;42.970;1.524;2022-12-07T05:13:03;17.77;;;11.87;;
53389;SDS011;39288;42.970;1.524;2022-12-07T05:14:04;13.97;;;11.83;;
53389;SDS011;39288;42.970;1.524;2022-12-07T05:15:21;12.65;;;10.52;;
53389;SDS011;39288;42.970;1.524;2022-12-07T05:16:21;15.20;;;11.20;;
53389;SDS011;39288;42.970;1.524;2022-12-07T05:17:22;11.53;;;10.30;;
53389;SDS011;39288;42.970;1.524;2022-12-07T05:18:22;14.93;;;11.27;;
53389;SDS011;39288;42.970;1.524;2022-12-07T05:19:23;13.53;;;10.27;;
53389;SDS011;39288;42.970;1.524;2022-12-07T05:20:23;20.70;;;10.10;;
53389;SDS011;39288;42.970;1.524;2022-12-07T05:21:24;14.65;;;9.95;;
53389;SDS011;39288;42.970;1.524;2022-12-07T05:22:24;449.77;;;51.47;;
53389;SDS011;39288;42.970;1.524;2022-12-07T05:23:28;34.35;;;8.73;;
53389;SDS011;39288;42.970;1.524;2022-12-07T05:24:28;9.40;;;7.40;;
53389;SDS011;39288;42.970;1.524;2022-12-07T05:25:29;11.97;;;9.40;;
53389;SDS011;39288;42.970;1.524;2022-12-07T05:26:29;13.33;;;10.33;;
53389;SDS011;39288;42.970;1.524;2022-12-07T05:27:30;45.17;;;27.60;;
53389;SDS011;39288;42.970;1.524;2022-12-07T05:28:30;37.27;;;22.10;;
53389;SDS011;39288;42.970;1.524;2022-12-07T05:29:31;25.65;;;19.20;;
53389;SDS011;39288;42.970;1.524;2022-12-07T05:30:31;22.23;;;14.83;;
53389;SDS011;39288;42.970;1.524;2022-12-07T05:31:32;20.70;;;14.88;;
53389;SDS011;39288;42.970;1.524;2022-12-07T05:32:33;33.33;;;19.17;;
53389;SDS011;39288;42.970;1.524;2022-12-07T05:33:33;21.80;;;15.23;;
53389;SDS011;39288;42.970;1.524;2022-12-07T05:34:34;17.33;;;13.80;;
53389;SDS011;39288;42.970;1.524;2022-12-07T05:35:34;18.07;;;12.17;;
53389;SDS011;39288;42.970;1.524;2022-12-07T05:36:35;21.97;;;15.00;;
53389;SDS011;39288;42.970;1.524;2022-12-07T05:37:35;17.30;;;13.57;;
53389;SDS011;39288;42.970;1.524;2022-12-07T05:38:36;19.93;;;15.83;;
53389;SDS011;39288;42.970;1.524;2022-12-07T05:39:36;16.17;;;13.70;;
53389;SDS011;39288;42.970;1.524;2022-12-07T05:40:40;18.40;;;14.07;;
53389;SDS011;39288;42.970;1.524;2022-12-07T05:41:41;21.20;;;15.13;;
53389;SDS011;39288;42.970;1.524;2022-12-07T05:43:00;22.58;;;15.90;;
53389;SDS011;39288;42.970;1.524;2022-12-07T05:44:00;17.57;;;13.20;;
53389;SDS011;39288;42.970;1.524;2022-12-07T05:45:01;16.57;;;13.80;;
53389;SDS011;39288;42.970;1.524;2022-12-07T05:46:01;24.37;;;15.70;;
53389;SDS011;39288;42.970;1.524;2022-12-07T05:47:02;20.77;;;14.30;;
53389;SDS011;39288;42.970;1.524;2022-12-07T05:48:02;17.73;;;14.20;;
53389;SDS011;39288;42.970;1.524;2022-12-07T05:49:03;15.43;;;12.97;;
53389;SDS011;39288;42.970;1.524;2022-12-07T05:50:04;20.13;;;14.43;;
53389;SDS011;39288;42.970;1.524;2022-12-07T05:51:06;16.65;;;12.70;;
53389;SDS011;39288;42.970;1.524;2022-12-07T05:52:06;13.20;;;11.67;;
53389;SDS011;39288;42.970;1.524;2022-12-07T05:53:07;13.77;;;11.57;;
53389;SDS011;39288;42.970;1.524;2022-12-07T05:54:07;13.03;;;11.40;;
53389;SDS011;39288;42.970;1.524;2022-12-07T05:55:08;14.80;;;12.60;;
53389;SDS011;39288;42.970;1.524;2022-12-07T05:56:08;13.70;;;11.70;;
53389;SDS011;39288;42.970;1.524;2022-12-07T05:57:09;17.40;;;11.87;;
53389;SDS011;39288;42.970;1.524;2022-12-07T05:58:10;17.57;;;12.20;;
53389;SDS011;39288;42.970;1.524;2022-12-07T05:59:29;15.38;;;11.23;;
53389;SDS011;39288;42.970;1.524;2022-12-07T06:00:29;14.63;;;10.93;;
53389;SDS011;39288;42.970;1.524;2022-12-07T06:01:30;14.27;;;11.53;;
53389;SDS011;39288;42.970;1.524;2022-12-07T06:02:30;15.80;;;12.10;;
53389;SDS011;39288;42.970;1.524;2022-12-07T06:03:31;16.50;;;14.63;;
53389;SDS011;39288;42.970;1.524;2022-12-07T06:04:32;15.20;;;12.33;;
53389;SDS011;39288;42.970;1.524;2022-12-07T06:05:34;14.90;;;12.75;;
53389;SDS011;39288;42.970;1.524;2022-12-07T06:06:35;13.83;;;12.33;;
53389;SDS011;39288;42.970;1.524;2022-12-07T06:07:35;16.83;;;13.27;;
53389;SDS011;39288;42.970;1.524;2022-12-07T06:08:36;22.90;;;16.43;;
53389;SDS011;39288;42.970;1.524;2022-12-07T06:09:36;15.90;;;14.10;;
53389;SDS011;39288;42.970;1.524;2022-12-07T06:10:37;16.80;;;13.77;;
53389;SDS011;39288;42.970;1.524;2022-12-07T06:11:38;13.80;;;11.90;;
53389;SDS011;39288;42.970;1.524;2022-12-07T06:12:57;19.85;;;11.43;;
53389;SDS011;39288;42.970;1.524;2022-12-07T06:13:58;17.63;;;12.17;;
53389;SDS011;39288;42.970;1.524;2022-12-07T06:14:59;16.92;;;11.73;;
53389;SDS011;39288;42.970;1.524;2022-12-07T06:15:59;15.10;;;10.80;;
53389;SDS011;39288;42.970;1.524;2022-12-07T06:17:00;16.20;;;11.33;;
53389;SDS011;39288;42.970;1.524;2022-12-07T06:18:01;17.33;;;12.57;;
53389;SDS011;39288;42.970;1.524;2022-12-07T06:19:01;12.73;;;10.97;;
53389;SDS011;39288;42.970;1.524;2022-12-07T06:20:02;12.23;;;10.93;;
53389;SDS011;39288;42.970;1.524;2022-12-07T06:21:03;15.13;;;11.63;;
53389;SDS011;39288;42.970;1.524;2022-12-07T06:22:04;15.52;;;12.98;;
53389;SDS011;39288;42.970;1.524;2022-12-07T06:23:05;13.50;;;11.23;;
53389;SDS011;39288;42.970;1.524;2022-12-07T06:24:06;18.07;;;13.33;;
53389;SDS011;39288;42.970;1.524;2022-12-07T06:25:07;16.33;;;14.10;;
53389;SDS011;39288;42.970;1.524;2022-12-07T06:26:08;21.48;;;17.65;;
53389;SDS011;39288;42.970;1.524;2022-12-07T06:27:09;20.80;;;18.70;;
53389;SDS011;39288;42.970;1.524;2022-12-07T06:28:10;44.00;;;20.37;;
53389;SDS011;39288;42.970;1.524;2022-12-07T06:29:11;49.37;;;24.17;;
53389;SDS011;39288;42.970;1.524;2022-12-07T06:30:11;56.45;;;24.42;;
53389;SDS011;39288;42.970;1.524;2022-12-07T06:31:12;103.23;;;37.57;;
53389;SDS011;39288;42.970;1.524;2022-12-07T06:32:12;48.40;;;25.27;;
53389;SDS011;39288;42.970;1.524;2022-12-07T06:33:13;101.87;;;39.47;;
53389;SDS011;39288;42.970;1.524;2022-12-07T06:34:15;125.80;;;47.07;;
53389;SDS011;39288;42.970;1.524;2022-12-07T06:35:17;44.00;;;22.13;;
53389;SDS011;39288;42.970;1.524;2022-12-07T06:36:17;24.83;;;15.13;;
53389;SDS011;39288;42.970;1.524;2022-12-07T06:37:18;37.70;;;22.20;;
53389;SDS011;39288;42.970;1.524;2022-12-07T06:38:18;47.30;;;23.87;;
53389;SDS011;39288;42.970;1.524;2022-12-07T06:39:19;100.90;;;31.23;;
53389;SDS011;39288;42.970;1.524;2022-12-07T06:40:21;27.05;;;16.25;;
53389;SDS011;39288;42.970;1.524;2022-12-07T06:41:22;20.93;;;15.17;;
53389;SDS011;39288;42.970;1.524;2022-12-07T06:42:23;21.50;;;15.35;;
53389;SDS011;39288;42.970;1.524;2022-12-07T06:43:23;20.27;;;15.07;;
53389;SDS011;39288;42.970;1.524;2022-12-07T06:44:24;27.63;;;16.67;;
53389;SDS011;39288;42.970;1.524;2022-12-07T06:45:25;22.70;;;13.48;;
53389;SDS011;39288;42.970;1.524;2022-12-07T06:46:25;15.03;;;12.57;;
53389;SDS011;39288;42.970;1.524;2022-12-07T06:47:26;19.08;;;14.80;;